sensor_id;sensor_type;location;lat;lon;timestamp;temperature;humidity
9201;DHT22;4635;48.686;9.008;2023-04-25T10:01:06;5.60;1.00
9201;DHT22;4635;48.686;9.008;2023-04-25T10:03:35;5.60;1.00
9201;DHT22;4635;48.686;9.008;2023-04-25T10:06:31;5.50;1.00
9201;DHT22;4635;48.686;9.008;2023-04-25T11:37:56;6.20;1.00
9201;DHT22;4635;48.686;9.008;2023-04-25T11:43:31;6.20;1.00
9201;DHT22;4635;48.686;9.008;2023-04-25T11:46:12;6.20;1.00
9201;DHT22;4635;48.686;9.008;2023-04-25T11:48:56;6.00;99.90
9201;DHT22;4635;48.686;9.008;2023-04-25T11:51:41;6.10;1.00
9201;DHT22;4635;48.686;9.008;2023-04-25T12:23:11;6.90;99.90
9201;DHT22;4635;48.686;9.008;2023-04-25T12:25:57;7.00;1.00
9201;DHT22;4635;48.686;9.008;2023-04-25T12:28:34;6.80;1.00
9201;DHT22;4635;48.686;9.008;2023-04-25T12:31:13;6.90;1.00
9201;DHT22;4635;48.686;9.008;2023-04-25T12:34:00;6.70;1.00
9201;DHT22;4635;48.686;9.008;2023-04-25T12:36:51;6.70;99.90
9201;DHT22;4635;48.686;9.008;2023-04-25T12:39:36;6.50;1.00
9201;DHT22;4635;48.686;9.008;2023-04-25T12:42:07;6.50;1.00
9201;DHT22;4635;48.686;9.008;2023-04-25T12:44:41;6.50;1.00
9201;DHT22;4635;48.686;9.008;2023-04-25T12:47:24;6.60;1.00
9201;DHT22;4635;48.686;9.008;2023-04-25T12:49:54;6.70;96.70
9201;DHT22;4635;48.686;9.008;2023-04-25T12:52:39;6.80;1.00
9201;DHT22;4635;48.686;9.008;2023-04-25T12:58:09;7.10;1.00
9201;DHT22;4635;48.686;9.008;2023-04-25T13:00:39;7.30;99.90
9201;DHT22;4635;48.686;9.008;2023-04-25T13:03:14;7.30;99.90
9201;DHT22;4635;48.686;9.008;2023-04-25T13:06:02;7.40;99.90
9201;DHT22;4635;48.686;9.008;2023-04-25T13:08:46;7.60;99.90
9201;DHT22;4635;48.686;9.008;2023-04-25T13:11:29;7.90;99.90
9201;DHT22;4635;48.686;9.008;2023-04-25T14:07:22;10.70;1.00
9201;DHT22;4635;48.686;9.008;2023-04-25T14:10:04;10.60;1.00
9201;DHT22;4635;48.686;9.008;2023-04-25T14:13:08;10.90;1.00
9201;DHT22;4635;48.686;9.008;2023-04-25T14:15:38;11.20;1.00
9201;DHT22;4635;48.686;9.008;2023-04-25T14:21:43;11.20;1.00
9201;DHT22;4635;48.686;9.008;2023-04-25T14:27:30;11.00;1.00
9201;DHT22;4635;48.686;9.008;2023-04-25T14:30:04;10.80;99.90
9201;DHT22;4635;48.686;9.008;2023-04-25T14:36:02;10.30;1.00
9201;DHT22;4635;48.686;9.008;2023-04-25T14:39:00;10.00;99.90
9201;DHT22;4635;48.686;9.008;2023-04-25T14:41:55;10.00;1.00
9201;DHT22;4635;48.686;9.008;2023-04-25T15:08:27;11.30;99.90
9201;DHT22;4635;48.686;9.008;2023-04-25T15:11:21;11.30;99.90
9201;DHT22;4635;48.686;9.008;2023-04-25T15:16:34;11.20;99.90
9201;DHT22;4635;48.686;9.008;2023-04-25T15:19:23;11.00;99.90
9201;DHT22;4635;48.686;9.008;2023-04-25T15:22:09;10.50;99.90
9201;DHT22;4635;48.686;9.008;2023-04-25T15:34:06;10.90;99.90
9201;DHT22;4635;48.686;9.008;2023-04-25T15:36:54;10.80;99.90
9201;DHT22;4635;48.686;9.008;2023-04-25T15:39:36;10.60;99.90
9201;DHT22;4635;48.686;9.008;2023-04-25T15:42:17;10.30;99.90
9201;DHT22;4635;48.686;9.008;2023-04-25T15:45:01;10.30;99.90
9201;DHT22;4635;48.686;9.008;2023-04-25T15:47:47;10.20;99.90
9201;DHT22;4635;48.686;9.008;2023-04-25T15:59:43;10.30;99.90
9201;DHT22;4635;48.686;9.008;2023-04-25T16:02:14;10.20;99.90
9201;DHT22;4635;48.686;9.008;2023-04-25T16:04:48;10.00;99.90
9201;DHT22;4635;48.686;9.008;2023-04-25T16:07:29;10.10;99.90
9201;DHT22;4635;48.686;9.008;2023-04-25T16:10:13;10.00;99.90
9201;DHT22;4635;48.686;9.008;2023-04-25T16:12:55;10.00;99.90
9201;DHT22;4635;48.686;9.008;2023-04-25T16:18:58;9.90;99.90
9201;DHT22;4635;48.686;9.008;2023-04-25T16:21:26;9.90;1.00
9201;DHT22;4635;48.686;9.008;2023-04-25T16:23:54;9.80;1.00
9201;DHT22;4635;48.686;9.008;2023-04-25T16:26:36;9.80;99.90
9201;DHT22;4635;48.686;9.008;2023-04-25T16:29:21;9.80;99.90
9201;DHT22;4635;48.686;9.008;2023-04-25T16:32:05;9.60;99.90
9201;DHT22;4635;48.686;9.008;2023-04-25T16:34:48;9.60;99.90
9201;DHT22;4635;48.686;9.008;2023-04-25T16:37:33;9.70;99.90
9201;DHT22;4635;48.686;9.008;2023-04-25T16:40:04;9.80;99.90
9201;DHT22;4635;48.686;9.008;2023-04-25T16:42:51;9.70;99.90
9201;DHT22;4635;48.686;9.008;2023-04-25T16:45:33;9.70;99.90
9201;DHT22;4635;48.686;9.008;2023-04-25T16:48:08;9.50;99.90
9201;DHT22;4635;48.686;9.008;2023-04-25T16:53:58;9.50;99.90
9201;DHT22;4635;48.686;9.008;2023-04-25T16:56:39;9.50;99.90
9201;DHT22;4635;48.686;9.008;2023-04-25T16:59:20;9.40;99.90
9201;DHT22;4635;48.686;9.008;2023-04-25T17:01:54;9.40;99.90
9201;DHT22;4635;48.686;9.008;2023-04-25T17:04:29;9.20;99.90
9201;DHT22;4635;48.686;9.008;2023-04-25T17:07:11;9.10;99.90
9201;DHT22;4635;48.686;9.008;2023-04-25T17:19:44;9.20;1.00
9201;DHT22;4635;48.686;9.008;2023-04-25T17:22:29;9.10;1.00
9201;DHT22;4635;48.686;9.008;2023-04-25T17:25:06;9.10;1.00
9201;DHT22;4635;48.686;9.008;2023-04-25T17:33:01;8.90;1.00
9201;DHT22;4635;48.686;9.008;2023-04-25T17:44:22;8.60;1.00
9201;DHT22;4635;48.686;9.008;2023-04-25T17:47:08;8.60;1.00
9201;DHT22;4635;48.686;9.008;2023-04-25T17:49:41;8.60;1.00
9201;DHT22;4635;48.686;9.008;2023-04-25T17:52:22;8.50;99.90
9201;DHT22;4635;48.686;9.008;2023-04-25T17:54:59;8.40;1.00
9201;DHT22;4635;48.686;9.008;2023-04-25T18:27:03;7.20;1.00
9201;DHT22;4635;48.686;9.008;2023-04-25T18:29:45;7.00;1.00
9201;DHT22;4635;48.686;9.008;2023-04-25T18:32:28;7.00;1.00
9201;DHT22;4635;48.686;9.008;2023-04-25T18:35:15;7.00;1.00
9201;DHT22;4635;48.686;9.008;2023-04-25T18:37:56;7.00;1.00
9201;DHT22;4635;48.686;9.008;2023-04-25T18:40:39;6.80;1.00
9201;DHT22;4635;48.686;9.008;2023-04-25T18:46:31;6.70;1.00
9201;DHT22;4635;48.686;9.008;2023-04-25T18:49:13;6.70;99.90
9201;DHT22;4635;48.686;9.008;2023-04-25T18:51:58;6.70;1.00
9201;DHT22;4635;48.686;9.008;2023-04-25T18:54:44;6.70;99.90
9201;DHT22;4635;48.686;9.008;2023-04-25T18:57:20;6.60;99.90
9201;DHT22;4635;48.686;9.008;2023-04-25T19:00:02;6.70;30.80
9201;DHT22;4635;48.686;9.008;2023-04-25T19:08:35;6.90;99.90
9201;DHT22;4635;48.686;9.008;2023-04-25T19:11:18;6.90;99.90
9201;DHT22;4635;48.686;9.008;2023-04-25T19:14:00;6.90;1.00
9201;DHT22;4635;48.686;9.008;2023-04-25T19:16:48;6.90;1.00
9201;DHT22;4635;48.686;9.008;2023-04-25T19:19:30;6.90;1.00
9201;DHT22;4635;48.686;9.008;2023-04-25T19:22:13;6.90;1.00
9201;DHT22;4635;48.686;9.008;2023-04-25T19:24:52;7.00;99.90
9201;DHT22;4635;48.686;9.008;2023-04-25T19:27:25;7.00;1.00
9201;DHT22;4635;48.686;9.008;2023-04-25T19:29:56;6.90;1.00
9201;DHT22;4635;48.686;9.008;2023-04-25T19:35:37;6.80;1.00
9201;DHT22;4635;48.686;9.008;2023-04-25T19:38:21;6.70;99.90
9201;DHT22;4635;48.686;9.008;2023-04-25T19:49:57;6.80;99.90
9201;DHT22;4635;48.686;9.008;2023-04-25T19:52:40;6.90;1.00
9201;DHT22;4635;48.686;9.008;2023-04-25T19:55:11;6.90;1.00
9201;DHT22;4635;48.686;9.008;2023-04-25T19:57:53;6.90;99.90
9201;DHT22;4635;48.686;9.008;2023-04-25T20:00:35;7.00;1.00
9201;DHT22;4635;48.686;9.008;2023-04-25T20:03:17;6.90;1.00
9201;DHT22;4635;48.686;9.008;2023-04-25T20:06:04;6.90;99.90
9201;DHT22;4635;48.686;9.008;2023-04-25T20:08:59;6.90;1.00
9201;DHT22;4635;48.686;9.008;2023-04-25T20:11:47;6.90;99.90
9201;DHT22;4635;48.686;9.008;2023-04-25T20:14:21;6.80;99.90
9201;DHT22;4635;48.686;9.008;2023-04-25T20:16:51;6.70;1.00
9201;DHT22;4635;48.686;9.008;2023-04-25T20:19:32;6.70;1.00
9201;DHT22;4635;48.686;9.008;2023-04-25T20:25:12;6.50;1.00
9201;DHT22;4635;48.686;9.008;2023-04-25T20:27:44;6.50;1.00
9201;DHT22;4635;48.686;9.008;2023-04-25T20:30:16;6.50;50.20
9201;DHT22;4635;48.686;9.008;2023-04-25T20:33:03;6.50;99.90
9201;DHT22;4635;48.686;9.008;2023-04-25T20:35:52;6.40;1.00
9201;DHT22;4635;48.686;9.008;2023-04-25T20:38:37;6.40;1.00
9201;DHT22;4635;48.686;9.008;2023-04-25T20:47:04;6.40;1.00
9201;DHT22;4635;48.686;9.008;2023-04-25T20:49:45;6.50;1.00
9201;DHT22;4635;48.686;9.008;2023-04-25T20:52:17;6.50;25.10
9201;DHT22;4635;48.686;9.008;2023-04-25T20:54:56;6.50;1.00
9201;DHT22;4635;48.686;9.008;2023-04-25T20:57:40;6.50;1.00
9201;DHT22;4635;48.686;9.008;2023-04-25T21:00:21;6.50;1.00
9201;DHT22;4635;48.686;9.008;2023-04-25T21:14:15;6.40;1.00
9201;DHT22;4635;48.686;9.008;2023-04-25T21:17:00;6.40;99.90
9201;DHT22;4635;48.686;9.008;2023-04-25T21:19:42;6.40;1.00
9201;DHT22;4635;48.686;9.008;2023-04-25T21:22:13;6.30;1.00
9201;DHT22;4635;48.686;9.008;2023-04-25T21:24:46;6.30;55.20
9201;DHT22;4635;48.686;9.008;2023-04-25T21:27:43;6.20;92.60
9201;DHT22;4635;48.686;9.008;2023-04-25T21:39:19;6.30;99.90
9201;DHT22;4635;48.686;9.008;2023-04-25T21:42:01;6.30;99.90
9201;DHT22;4635;48.686;9.008;2023-04-25T21:44:43;6.20;99.90
9201;DHT22;4635;48.686;9.008;2023-04-25T21:47:25;6.10;99.90
9201;DHT22;4635;48.686;9.008;2023-04-25T21:50:08;6.10;99.90
9201;DHT22;4635;48.686;9.008;2023-04-25T21:52:38;6.20;99.90
9201;DHT22;4635;48.686;9.008;2023-04-25T21:55:32;6.20;99.90
9201;DHT22;4635;48.686;9.008;2023-04-25T21:58:13;6.20;1.00
9201;DHT22;4635;48.686;9.008;2023-04-25T22:01:01;6.10;1.00
9201;DHT22;4635;48.686;9.008;2023-04-25T22:03:35;6.20;1.00
9201;DHT22;4635;48.686;9.008;2023-04-25T22:09:39;6.20;1.00
9201;DHT22;4635;48.686;9.008;2023-04-25T22:12:12;6.10;1.00
9201;DHT22;4635;48.686;9.008;2023-04-25T22:14:51;6.20;1.00
9201;DHT22;4635;48.686;9.008;2023-04-25T22:17:34;6.20;1.00
9201;DHT22;4635;48.686;9.008;2023-04-25T22:20:10;6.30;1.00
9201;DHT22;4635;48.686;9.008;2023-04-25T22:25:50;6.40;99.90
9201;DHT22;4635;48.686;9.008;2023-04-25T22:28:32;6.40;1.00
9201;DHT22;4635;48.686;9.008;2023-04-25T22:31:13;6.40;1.00
9201;DHT22;4635;48.686;9.008;2023-04-25T22:33:55;6.40;1.00
9201;DHT22;4635;48.686;9.008;2023-04-25T22:36:24;6.40;1.00
9201;DHT22;4635;48.686;9.008;2023-04-25T22:38:56;6.30;1.00
9201;DHT22;4635;48.686;9.008;2023-04-25T22:41:32;6.30;1.00
9201;DHT22;4635;48.686;9.008;2023-04-25T22:44:11;6.30;1.00
9201;DHT22;4635;48.686;9.008;2023-04-25T22:46:40;6.30;1.00
9201;DHT22;4635;48.686;9.008;2023-04-25T22:49:22;6.20;1.00
9201;DHT22;4635;48.686;9.008;2023-04-25T22:52:09;6.30;99.90
9201;DHT22;4635;48.686;9.008;2023-04-25T22:54:50;6.30;99.90
9201;DHT22;4635;48.686;9.008;2023-04-25T22:57:31;6.30;99.90
9201;DHT22;4635;48.686;9.008;2023-04-25T22:59:59;6.30;1.00
9201;DHT22;4635;48.686;9.008;2023-04-25T23:02:41;6.30;1.00
9201;DHT22;4635;48.686;9.008;2023-04-25T23:05:13;6.30;1.00
9201;DHT22;4635;48.686;9.008;2023-04-25T23:07:55;6.30;1.00
9201;DHT22;4635;48.686;9.008;2023-04-25T23:10:26;6.30;99.90
9201;DHT22;4635;48.686;9.008;2023-04-25T23:13:04;6.30;1.00
9201;DHT22;4635;48.686;9.008;2023-04-25T23:15:35;6.30;1.00
9201;DHT22;4635;48.686;9.008;2023-04-25T23:18:19;6.30;1.00
9201;DHT22;4635;48.686;9.008;2023-04-25T23:20:47;6.20;99.90
9201;DHT22;4635;48.686;9.008;2023-04-25T23:23:31;6.30;1.00
9201;DHT22;4635;48.686;9.008;2023-04-25T23:26:16;6.20;1.00
9201;DHT22;4635;48.686;9.008;2023-04-25T23:31:38;6.10;99.90
9201;DHT22;4635;48.686;9.008;2023-04-25T23:34:15;6.20;20.10
9201;DHT22;4635;48.686;9.008;2023-04-25T23:36:43;6.20;1.00
9201;DHT22;4635;48.686;9.008;2023-04-25T23:39:19;6.30;1.00
9201;DHT22;4635;48.686;9.008;2023-04-25T23:41:58;6.20;99.90
9201;DHT22;4635;48.686;9.008;2023-04-25T23:44:28;6.40;1.00
9201;DHT22;4635;48.686;9.008;2023-04-25T23:59:02;6.30;99.90
